createdAt,value
2023-08-07T00:00:00.829Z,16.7
2023-08-07T00:03:00.922Z,16.7
2023-08-07T00:06:00.779Z,16.7
2023-08-07T00:09:00.857Z,16.7
2023-08-07T00:12:00.888Z,16.7
2023-08-07T00:15:00.802Z,16.7
2023-08-07T00:18:00.833Z,16.7
2023-08-07T00:21:00.883Z,16.7
2023-08-07T00:24:00.801Z,16.7
2023-08-07T00:27:00.797Z,16.7
2023-08-07T00:30:00.858Z,16.7
2023-08-07T00:33:00.837Z,16.7
2023-08-07T00:36:00.876Z,16.7
2023-08-07T00:39:00.824Z,16.7
2023-08-07T00:42:00.986Z,16.7
2023-08-07T00:45:01.130Z,16.7
2023-08-07T00:48:00.914Z,16.7
2023-08-07T00:51:00.805Z,16.7
2023-08-07T00:54:00.831Z,16.1
2023-08-07T00:57:00.718Z,16.1
2023-08-07T01:00:00.832Z,16.1
2023-08-07T01:03:01.022Z,16.1
2023-08-07T01:06:00.790Z,16.1
2023-08-07T01:09:00.773Z,16.1
2023-08-07T01:12:00.749Z,16.1
2023-08-07T01:15:00.788Z,16.1
2023-08-07T01:18:00.931Z,16.1
2023-08-07T01:21:00.821Z,16.1
2023-08-07T01:24:00.797Z,16.1
2023-08-07T01:27:00.813Z,16.1
2023-08-07T01:30:00.992Z,16.1
2023-08-07T01:33:00.837Z,16.1
2023-08-07T01:36:00.839Z,16.1
2023-08-07T01:39:00.807Z,16.1
2023-08-07T01:42:00.769Z,16.1
2023-08-07T01:45:00.829Z,16.1
2023-08-07T01:48:01.020Z,16.1
2023-08-07T01:51:00.806Z,16.1
2023-08-07T01:54:00.789Z,16.1
2023-08-07T01:57:00.817Z,16.1
2023-08-07T02:00:00.862Z,16.1
2023-08-07T02:03:01.137Z,16.1
2023-08-07T02:06:00.787Z,16.1
2023-08-07T02:09:00.824Z,16.1
2023-08-07T02:12:00.958Z,16.1
2023-08-07T02:15:00.844Z,16.1
2023-08-07T02:18:00.918Z,16.1
2023-08-07T02:21:00.793Z,16.1
2023-08-07T02:24:00.881Z,16.1
2023-08-07T02:27:00.832Z,16.1
2023-08-07T02:30:00.826Z,16.1
2023-08-07T02:33:00.837Z,16.1
2023-08-07T02:36:00.801Z,16.1
2023-08-07T02:39:00.795Z,16.1
2023-08-07T02:42:00.782Z,16.1
2023-08-07T02:45:00.866Z,16.1
2023-08-07T02:48:00.896Z,16.1
2023-08-07T02:51:00.828Z,16.1
2023-08-07T02:54:00.758Z,16.1
2023-08-07T02:57:00.805Z,16.1
2023-08-07T03:00:00.887Z,16.1
2023-08-07T03:03:00.923Z,16.1
2023-08-07T03:06:00.738Z,16.1
2023-08-07T03:09:00.738Z,16.1
2023-08-07T03:12:00.827Z,16.1
2023-08-07T03:15:00.833Z,16.1
2023-08-07T03:18:00.898Z,16.1
2023-08-07T03:21:00.890Z,16.1
2023-08-07T03:24:00.816Z,16.1
2023-08-07T03:27:00.802Z,16.1
2023-08-07T03:30:00.908Z,15.7
2023-08-07T03:33:00.879Z,15.7
2023-08-07T03:36:00.841Z,15.7
2023-08-07T03:39:00.777Z,15.7
2023-08-07T03:42:00.960Z,15.7
2023-08-07T03:45:00.811Z,15.7
2023-08-07T03:48:00.896Z,15.7
2023-08-07T03:51:00.812Z,15.7
2023-08-07T03:54:00.951Z,15.7
2023-08-07T03:57:00.972Z,15.7
2023-08-07T04:00:00.847Z,15.7
2023-08-07T04:03:00.880Z,15.7
2023-08-07T04:06:00.797Z,15.7
2023-08-07T04:09:00.863Z,15.7
2023-08-07T04:12:00.891Z,15.7
2023-08-07T04:15:00.872Z,15.7
2023-08-07T04:18:00.963Z,15.7
2023-08-07T04:21:00.902Z,15.7
2023-08-07T04:24:00.870Z,15.7
2023-08-07T04:27:00.823Z,15.7
2023-08-07T04:30:00.910Z,15.7
2023-08-07T04:33:01.032Z,15.7
2023-08-07T04:36:00.842Z,15.6
2023-08-07T04:39:00.901Z,15.6
2023-08-07T04:42:00.846Z,15.6
2023-08-07T04:45:01.016Z,15.6
2023-08-07T04:48:00.953Z,15.6
2023-08-07T04:51:00.809Z,15.6
2023-08-07T04:54:00.835Z,15.6
2023-08-07T04:57:00.825Z,15.6
2023-08-07T05:00:00.888Z,15.6
2023-08-07T05:03:01.164Z,15.6
2023-08-07T05:06:00.851Z,15.6
2023-08-07T05:09:00.829Z,15.6
2023-08-07T05:12:00.866Z,15.6
2023-08-07T05:15:00.821Z,15.6
2023-08-07T05:18:00.951Z,15.6
2023-08-07T05:21:00.768Z,15.6
2023-08-07T05:24:00.877Z,15.6
2023-08-07T05:27:00.803Z,15.7
2023-08-07T05:30:01.101Z,15.7
2023-08-07T05:33:00.987Z,15.7
2023-08-07T05:36:00.839Z,15.7
2023-08-07T05:39:00.826Z,15.7
2023-08-07T05:42:00.968Z,15.7
2023-08-07T05:45:00.824Z,15.7
2023-08-07T05:48:00.887Z,15.7
2023-08-07T05:51:00.780Z,15.7
2023-08-07T05:54:00.801Z,15.7
2023-08-07T05:57:00.799Z,15.7
2023-08-07T06:00:00.894Z,15.7
2023-08-07T06:03:00.915Z,15.7
2023-08-07T06:06:00.860Z,15.7
2023-08-07T06:09:01.414Z,15.7
2023-08-07T06:12:00.919Z,15.7
2023-08-07T06:15:00.862Z,15.7
2023-08-07T06:18:00.904Z,15.7
2023-08-07T06:21:00.783Z,15.7
2023-08-07T06:24:00.801Z,15.7
2023-08-07T06:27:00.828Z,15.7
2023-08-07T06:30:00.969Z,15.7
2023-08-07T06:33:00.940Z,15.7
2023-08-07T06:36:00.863Z,15.7
2023-08-07T06:39:00.832Z,15.7
2023-08-07T06:42:00.847Z,15.7
2023-08-07T06:45:00.879Z,15.7
2023-08-07T06:48:00.927Z,15.7
2023-08-07T06:51:00.788Z,15.7
2023-08-07T06:54:00.835Z,15.7
2023-08-07T06:57:00.815Z,15.7
2023-08-07T07:00:00.973Z,16
2023-08-07T07:03:00.960Z,16
2023-08-07T07:06:00.850Z,16
2023-08-07T07:09:00.863Z,16
2023-08-07T07:12:00.869Z,16
2023-08-07T07:15:00.813Z,16
2023-08-07T07:18:00.854Z,16
2023-08-07T07:21:00.855Z,16.2
2023-08-07T07:24:00.876Z,16.2
2023-08-07T07:27:00.790Z,16.2
2023-08-07T07:30:00.866Z,16.2
2023-08-07T07:33:00.862Z,16.2
2023-08-07T07:36:00.855Z,16.2
2023-08-07T07:39:00.918Z,16.2
2023-08-07T07:42:00.860Z,16.2
2023-08-07T07:45:00.829Z,16.3
2023-08-07T07:48:00.856Z,16.3
2023-08-07T07:51:04.144Z,16.3
2023-08-07T07:54:14.852Z,16.3
2023-08-07T07:57:01.499Z,16.3
2023-08-07T08:00:00.909Z,16.3
2023-08-07T08:03:01.065Z,16.3
2023-08-07T08:06:00.834Z,16.3
2023-08-07T08:09:00.890Z,16.3
2023-08-07T08:12:02.054Z,16.8
2023-08-07T08:15:00.891Z,16.8
2023-08-07T08:18:00.954Z,16.8
2023-08-07T08:21:00.848Z,16.8
2023-08-07T08:24:00.852Z,16.8
2023-08-07T08:27:03.211Z,16.8
2023-08-07T08:30:01.912Z,16.8
2023-08-07T08:33:00.879Z,16.8
2023-08-07T08:36:00.905Z,17.1
2023-08-07T08:39:01.054Z,17.1
2023-08-07T08:42:01.486Z,17.1
2023-08-07T08:45:00.875Z,17.1
2023-08-07T08:48:00.913Z,17.1
2023-08-07T08:51:00.855Z,17.1
2023-08-07T08:54:00.867Z,17.1
2023-08-07T08:57:02.265Z,17.1
2023-08-07T09:00:00.963Z,17.6
2023-08-07T09:03:01.056Z,17.6
2023-08-07T09:06:00.936Z,17.6
2023-08-07T09:09:00.822Z,17.6
2023-08-07T09:12:02.005Z,17.6
2023-08-07T09:15:00.806Z,17.6
2023-08-07T09:18:00.944Z,17.6
2023-08-07T09:21:00.806Z,17.6
2023-08-07T09:24:00.834Z,17.6
2023-08-07T09:27:01.632Z,18.2
2023-08-07T09:30:00.909Z,18.2
2023-08-07T09:33:00.939Z,18.2
2023-08-07T09:36:00.860Z,18.2
2023-08-07T09:39:00.848Z,18.1
2023-08-07T09:42:02.294Z,18.1
2023-08-07T09:45:00.836Z,18.1
2023-08-07T09:48:00.957Z,18.1
2023-08-07T09:51:00.813Z,18.1
2023-08-07T09:54:00.822Z,18.4
2023-08-07T09:57:02.209Z,18.4
2023-08-07T10:00:00.886Z,18.4
2023-08-07T10:03:00.954Z,18.4
2023-08-07T10:06:00.884Z,18.4
2023-08-07T10:09:00.805Z,17.9
2023-08-07T10:12:01.636Z,17.9
2023-08-07T10:15:00.869Z,17.9
2023-08-07T10:18:00.895Z,17.9
2023-08-07T10:21:00.804Z,17.9
2023-08-07T10:24:00.833Z,17.9
2023-08-07T10:27:04.401Z,17.9
2023-08-07T10:30:00.949Z,17.9
2023-08-07T10:33:01.152Z,17.9
2023-08-07T10:36:01.021Z,17.9
2023-08-07T10:39:00.949Z,17.9
2023-08-07T10:42:04.438Z,17.9
2023-08-07T10:45:00.886Z,17.9
2023-08-07T10:48:01.018Z,17.9
2023-08-07T10:51:00.919Z,17.9
2023-08-07T10:54:00.865Z,17.9
2023-08-07T10:57:02.899Z,17.9
2023-08-07T11:00:00.853Z,17.9
2023-08-07T11:03:00.942Z,17.9
2023-08-07T11:06:00.836Z,17.9
2023-08-07T11:09:00.893Z,17.9
2023-08-07T11:12:01.744Z,17.9
2023-08-07T11:15:00.865Z,17.9
2023-08-07T11:18:00.907Z,17.9
2023-08-07T11:21:00.834Z,17.9
2023-08-07T11:24:00.804Z,17.9
2023-08-07T11:27:05.551Z,17.9
2023-08-07T11:30:00.900Z,17.9
2023-08-07T11:33:01.972Z,17.9
2023-08-07T11:36:00.936Z,17.9
2023-08-07T11:39:00.924Z,17.9
2023-08-07T11:42:02.124Z,17.9
2023-08-07T11:45:00.838Z,17.9
2023-08-07T11:48:00.927Z,17.9
2023-08-07T11:51:00.893Z,17.9
2023-08-07T11:54:00.865Z,17.9
2023-08-07T11:57:02.066Z,17.9
2023-08-07T12:00:00.912Z,17.9
2023-08-07T12:03:00.904Z,17.5
2023-08-07T12:06:00.764Z,17.5
2023-08-07T12:09:00.824Z,17.5
2023-08-07T12:12:02.346Z,17.5
2023-08-07T12:15:00.788Z,17.5
2023-08-07T12:18:00.850Z,17.5
2023-08-07T12:21:00.805Z,17.5
2023-08-07T12:24:00.848Z,17
2023-08-07T12:27:01.270Z,17
2023-08-07T12:30:00.839Z,16.9
2023-08-07T12:33:00.917Z,16.9
2023-08-07T12:36:00.888Z,16.9
2023-08-07T12:39:00.782Z,16.9
2023-08-07T12:45:00.849Z,16.5
2023-08-07T12:48:00.904Z,16.5
2023-08-07T12:51:00.795Z,16.5
2023-08-07T12:54:00.899Z,16.5
2023-08-07T12:57:00.939Z,16.5
2023-08-07T13:00:01.008Z,16.5
2023-08-07T13:03:00.994Z,16.5
2023-08-07T13:06:00.999Z,16.5
2023-08-07T13:09:00.914Z,16.5
2023-08-07T13:12:01.663Z,16.5
2023-08-07T13:15:01.039Z,17
2023-08-07T13:18:00.860Z,17
2023-08-07T13:21:00.915Z,17.1
2023-08-07T13:24:00.781Z,17.1
2023-08-07T13:27:00.928Z,17
2023-08-07T13:30:00.842Z,16.9
2023-08-07T13:33:00.911Z,16.6
2023-08-07T13:36:00.779Z,16.6
2023-08-07T13:39:00.863Z,16.6
2023-08-07T13:42:00.860Z,16.6
2023-08-07T13:45:00.846Z,16.6
2023-08-07T13:48:00.853Z,16.6
2023-08-07T13:51:00.870Z,16.6
2023-08-07T13:54:00.853Z,16.6
2023-08-07T13:57:00.864Z,16.6
2023-08-07T14:00:00.964Z,16.6
2023-08-07T14:03:00.828Z,16.9
2023-08-07T14:06:00.849Z,16.9
2023-08-07T14:09:00.817Z,16.9
2023-08-07T14:12:01.068Z,16.9
2023-08-07T14:15:00.842Z,16.9
2023-08-07T14:18:00.969Z,17.3
2023-08-07T14:21:03.657Z,17.3
2023-08-07T14:24:00.956Z,17.3
2023-08-07T14:27:02.116Z,17.3
2023-08-07T14:30:00.877Z,17.3
2023-08-07T14:33:00.869Z,17.3
2023-08-07T14:36:00.840Z,17.3
2023-08-07T14:39:00.812Z,17.3
2023-08-07T14:42:02.055Z,17.3
2023-08-07T14:45:00.874Z,17.8
2023-08-07T14:48:00.966Z,17.8
2023-08-07T14:51:00.834Z,17.8
2023-08-07T14:54:00.871Z,17.8
2023-08-07T14:57:02.085Z,17.8
2023-08-07T15:00:00.900Z,18
2023-08-07T15:03:00.897Z,18
2023-08-07T15:06:00.814Z,18
2023-08-07T15:09:00.831Z,18
2023-08-07T15:12:03.396Z,18
2023-08-07T15:15:00.826Z,18
2023-08-07T15:18:00.991Z,18.1
2023-08-07T15:21:00.877Z,18.1
2023-08-07T15:24:00.826Z,18.1
2023-08-07T15:27:02.861Z,18.1
2023-08-07T15:30:00.887Z,18.1
2023-08-07T15:33:00.854Z,18.1
2023-08-07T15:36:00.896Z,18.1
2023-08-07T15:39:00.783Z,18.1
2023-08-07T15:42:01.945Z,18.1
2023-08-07T15:45:00.825Z,18.1
2023-08-07T15:48:01.042Z,18.1
2023-08-07T15:51:01.551Z,18.1
2023-08-07T15:54:00.852Z,18
2023-08-07T15:57:02.105Z,18
2023-08-07T16:00:00.978Z,18
2023-08-07T16:03:00.859Z,18
2023-08-07T16:06:00.769Z,18
2023-08-07T16:09:00.866Z,17.9
2023-08-07T16:12:01.932Z,17.9
2023-08-07T16:15:00.885Z,17.9
2023-08-07T16:18:00.848Z,17.8
2023-08-07T16:21:00.794Z,17.7
2023-08-07T16:24:00.877Z,17.7
2023-08-07T16:27:02.541Z,17.7
2023-08-07T16:30:00.874Z,17.7
2023-08-07T16:33:00.953Z,17.7
2023-08-07T16:36:00.847Z,17.7
2023-08-07T16:39:00.859Z,17.7
2023-08-07T16:42:01.390Z,17.7
2023-08-07T16:45:00.835Z,17.7
2023-08-07T16:48:00.873Z,17.4
2023-08-07T16:51:16.007Z,17.4
2023-08-07T16:54:00.793Z,17.4
2023-08-07T16:57:02.126Z,17.4
2023-08-07T17:00:00.884Z,17.4
2023-08-07T17:03:01.008Z,17.4
2023-08-07T17:06:01.554Z,17.4
2023-08-07T17:09:00.828Z,17.4
2023-08-07T17:12:02.113Z,17.4
2023-08-07T17:15:00.813Z,17.4
2023-08-07T17:18:00.797Z,17.4
2023-08-07T17:21:00.814Z,17.4
2023-08-07T17:24:00.794Z,17.4
2023-08-07T17:27:02.207Z,17.4
2023-08-07T17:30:00.822Z,17.4
2023-08-07T17:33:01.034Z,17.4
2023-08-07T17:36:00.888Z,17.4
2023-08-07T17:39:02.831Z,17.4
2023-08-07T17:42:01.810Z,17.4
2023-08-07T17:45:00.816Z,17.4
2023-08-07T17:48:00.864Z,17.1
2023-08-07T17:51:00.811Z,17.1
2023-08-07T17:54:00.830Z,17.1
2023-08-07T17:57:02.276Z,16.9
2023-08-07T18:00:00.930Z,16.6
2023-08-07T18:03:00.857Z,16.1
2023-08-07T18:06:01.973Z,15.8
2023-08-07T18:09:00.781Z,15.8
2023-08-07T18:12:02.246Z,15.8
2023-08-07T18:15:00.797Z,15.8
2023-08-07T18:18:00.923Z,15.8
2023-08-07T18:21:00.823Z,15.8
2023-08-07T18:24:00.901Z,15.8
2023-08-07T18:27:01.986Z,15.8
2023-08-07T18:30:00.818Z,15.8
2023-08-07T18:33:00.871Z,15.8
2023-08-07T18:36:01.138Z,15.8
2023-08-07T18:39:00.866Z,15.8
2023-08-07T18:42:00.902Z,15.8
2023-08-07T18:45:00.868Z,15.8
2023-08-07T18:48:00.871Z,15.8
2023-08-07T18:51:00.793Z,15.8
2023-08-07T18:54:00.891Z,15.8
2023-08-07T18:57:05.086Z,15.8
2023-08-07T19:00:00.871Z,15.8
2023-08-07T19:03:00.946Z,15.8
2023-08-07T19:06:00.815Z,15.5
2023-08-07T19:09:00.836Z,15.5
2023-08-07T19:12:00.807Z,15.5
2023-08-07T19:15:00.846Z,15.5
2023-08-07T19:18:01.009Z,15.5
2023-08-07T19:21:00.819Z,15.5
2023-08-07T19:24:00.782Z,15.5
2023-08-07T19:27:01.387Z,15.5
2023-08-07T19:30:00.817Z,15.5
2023-08-07T19:33:00.831Z,15.5
2023-08-07T19:36:00.870Z,15.5
2023-08-07T19:39:00.762Z,15.5
2023-08-07T19:42:00.787Z,15.1
2023-08-07T19:45:00.778Z,15.1
2023-08-07T19:48:00.847Z,15.1
2023-08-07T19:51:00.792Z,15.1
2023-08-07T19:54:02.723Z,15.1
2023-08-07T19:57:00.876Z,15.1
2023-08-07T20:00:00.847Z,15.1
2023-08-07T20:03:00.841Z,15.1
2023-08-07T20:06:00.787Z,15.1
2023-08-07T20:09:00.718Z,15.1
2023-08-07T20:12:01.545Z,15.1
2023-08-07T20:15:00.904Z,15.1
2023-08-07T20:18:00.849Z,15.1
2023-08-07T20:21:00.733Z,15.1
2023-08-07T20:24:00.850Z,15.1
2023-08-07T20:27:00.785Z,15.1
2023-08-07T20:30:00.801Z,15.1
2023-08-07T20:33:00.814Z,14.6
2023-08-07T20:36:00.799Z,14.6
2023-08-07T20:39:00.818Z,14.6
2023-08-07T20:42:01.593Z,14.6
2023-08-07T20:45:00.780Z,14.6
2023-08-07T20:48:00.852Z,14.6
2023-08-07T20:51:00.793Z,14.6
2023-08-07T20:54:00.788Z,14.6
2023-08-07T20:57:00.794Z,14.6
2023-08-07T21:00:00.779Z,14.6
2023-08-07T21:03:00.982Z,14.6
2023-08-07T21:06:00.787Z,14.6
2023-08-07T21:09:00.770Z,14.6
2023-08-07T21:12:01.260Z,14.4
2023-08-07T21:15:00.770Z,14.4
2023-08-07T21:18:00.872Z,14.4
2023-08-07T21:21:00.770Z,14.4
2023-08-07T21:24:00.788Z,14.4
2023-08-07T21:27:00.763Z,14.4
2023-08-07T21:30:00.814Z,14.4
2023-08-07T21:33:00.783Z,14.4
2023-08-07T21:36:00.791Z,14.4
2023-08-07T21:39:00.886Z,14.4
2023-08-07T21:42:01.276Z,14.4
2023-08-07T21:45:00.836Z,14.4
2023-08-07T21:48:00.932Z,14.4
2023-08-07T21:51:00.819Z,14.4
2023-08-07T21:54:00.814Z,14.4
2023-08-07T21:57:00.794Z,14.4
2023-08-07T22:00:01.124Z,14.4
2023-08-07T22:03:01.010Z,14.4
2023-08-07T22:06:00.808Z,14.4
2023-08-07T22:09:00.777Z,14.4
2023-08-07T22:12:01.512Z,14.4
2023-08-07T22:15:00.820Z,14.4
2023-08-07T22:18:00.842Z,14.4
2023-08-07T22:21:00.755Z,14.4
2023-08-07T22:24:00.763Z,14.4
2023-08-07T22:27:00.742Z,14.4
2023-08-07T22:30:00.811Z,14.4
2023-08-07T22:33:00.782Z,14.4
2023-08-07T22:36:00.811Z,14.4
2023-08-07T22:39:00.754Z,14.4
2023-08-07T22:42:01.387Z,14.4
2023-08-07T22:45:00.759Z,14.4
2023-08-07T22:48:00.936Z,14.4
2023-08-07T22:51:00.782Z,14.4
2023-08-07T22:54:00.944Z,14.4
2023-08-07T22:57:00.754Z,14.4
2023-08-07T23:00:00.900Z,14.4
2023-08-07T23:03:00.926Z,14.4
2023-08-07T23:06:00.810Z,13.9
2023-08-07T23:09:00.781Z,13.9
2023-08-07T23:12:01.304Z,13.9
2023-08-07T23:15:00.748Z,13.9
2023-08-07T23:18:00.883Z,13.9
2023-08-07T23:21:00.761Z,13.9
2023-08-07T23:24:00.833Z,13.9
2023-08-07T23:27:00.805Z,13.9
2023-08-07T23:30:00.833Z,13.8
2023-08-07T23:33:00.823Z,13.8
2023-08-07T23:36:00.771Z,13.8
2023-08-07T23:39:00.878Z,13.8
2023-08-07T23:42:01.328Z,13.8
2023-08-07T23:45:00.831Z,13.8
2023-08-07T23:48:00.945Z,13.8
2023-08-07T23:51:00.817Z,13.8
2023-08-07T23:54:00.770Z,13.8
2023-08-07T23:57:00.820Z,13.8
